createdAt,value
2017-08-04T00:01:03.028Z,3.37
2017-08-04T00:03:29.110Z,2.63
2017-08-04T00:05:55.198Z,2.47
2017-08-04T00:08:21.286Z,2.57
2017-08-04T00:10:47.346Z,2.70
2017-08-04T00:13:13.505Z,1.97
2017-08-04T00:15:39.567Z,2.87
2017-08-04T00:18:05.651Z,2.10
2017-08-04T00:20:31.732Z,2.43
2017-08-04T00:22:57.811Z,2.03
2017-08-04T00:25:24.822Z,2.33
2017-08-04T00:27:50.899Z,2.30
2017-08-04T00:30:16.970Z,2.60
2017-08-04T00:32:43.052Z,2.23
2017-08-04T00:35:09.107Z,2.07
2017-08-04T00:37:35.219Z,2.40
2017-08-04T00:40:01.275Z,2.43
2017-08-04T00:42:27.330Z,2.20
2017-08-04T00:44:54.337Z,2.43
2017-08-04T00:47:20.401Z,2.80
2017-08-04T00:49:47.215Z,3.07
2017-08-04T00:52:13.270Z,2.80
2017-08-04T00:54:40.098Z,2.30
2017-08-04T00:57:06.158Z,2.20
2017-08-04T00:59:32.235Z,2.90
2017-08-04T01:01:58.341Z,2.57
2017-08-04T01:04:24.445Z,2.37
2017-08-04T01:06:50.519Z,2.80
2017-08-04T01:09:16.588Z,2.23
2017-08-04T01:11:42.645Z,2.60
2017-08-04T01:14:08.731Z,2.57
2017-08-04T01:16:35.012Z,2.30
2017-08-04T01:19:01.104Z,2.20
2017-08-04T01:21:27.341Z,2.30
2017-08-04T01:23:53.463Z,2.40
2017-08-04T01:26:19.535Z,1.90
2017-08-04T01:28:46.364Z,2.23
2017-08-04T01:31:12.436Z,2.90
2017-08-04T01:33:38.547Z,2.73
2017-08-04T01:36:04.636Z,2.20
2017-08-04T01:38:30.854Z,1.63
2017-08-04T01:40:56.990Z,2.30
2017-08-04T01:43:23.079Z,2.10
2017-08-04T01:45:49.166Z,2.10
2017-08-04T01:48:15.250Z,2.13
2017-08-04T01:50:41.392Z,2.40
2017-08-04T01:53:07.507Z,2.40
2017-08-04T01:55:33.579Z,2.23
2017-08-04T01:57:59.683Z,2.57
2017-08-04T02:00:26.514Z,2.00
2017-08-04T02:02:52.601Z,2.23
2017-08-04T02:05:18.671Z,2.07
2017-08-04T02:07:44.768Z,2.40
2017-08-04T02:10:10.841Z,2.10
2017-08-04T02:12:36.927Z,3.00
2017-08-04T02:15:02.996Z,2.63
2017-08-04T02:17:29.086Z,2.13
2017-08-04T02:19:55.235Z,2.20
2017-08-04T02:22:22.066Z,1.80
2017-08-04T02:24:48.874Z,2.90
2017-08-04T02:27:14.970Z,2.63
2017-08-04T02:29:41.022Z,2.20
2017-08-04T02:32:07.123Z,2.00
2017-08-04T02:34:33.186Z,2.87
2017-08-04T02:36:59.385Z,2.40
2017-08-04T02:39:25.446Z,2.50
2017-08-04T02:41:51.534Z,2.43
2017-08-04T02:44:17.625Z,1.93
2017-08-04T02:46:43.687Z,2.67
2017-08-04T02:49:09.781Z,1.50
2017-08-04T02:51:35.855Z,2.00
2017-08-04T02:54:01.945Z,1.90
2017-08-04T02:56:28.006Z,2.10
2017-08-04T02:58:54.081Z,1.80
2017-08-04T03:01:20.160Z,2.10
2017-08-04T03:03:46.235Z,1.90
2017-08-04T03:06:12.326Z,1.97
2017-08-04T03:08:38.422Z,1.73
2017-08-04T03:11:04.486Z,1.90
2017-08-04T03:13:30.646Z,2.27
2017-08-04T03:15:56.714Z,2.17
2017-08-04T03:18:22.774Z,2.33
2017-08-04T03:20:48.846Z,2.20
2017-08-04T03:23:14.903Z,2.10
2017-08-04T03:25:40.970Z,2.00
2017-08-04T03:28:07.027Z,2.03
2017-08-04T03:30:33.114Z,2.20
2017-08-04T03:32:59.184Z,1.93
2017-08-04T03:35:25.269Z,2.30
2017-08-04T03:37:51.342Z,1.80
2017-08-04T03:40:17.540Z,2.10
2017-08-04T03:42:43.606Z,1.90
2017-08-04T03:45:09.686Z,2.10
2017-08-04T03:47:35.783Z,2.20
2017-08-04T03:50:01.860Z,1.70
2017-08-04T03:52:27.979Z,1.93
2017-08-04T03:54:54.180Z,2.20
2017-08-04T03:57:20.270Z,1.83
2017-08-04T03:59:46.358Z,1.83
2017-08-04T04:02:12.431Z,1.87
2017-08-04T04:04:38.520Z,1.80
2017-08-04T04:07:04.623Z,2.00
2017-08-04T04:09:30.739Z,2.30
2017-08-04T04:11:56.835Z,2.17
2017-08-04T04:14:22.907Z,1.50
2017-08-04T04:16:48.971Z,1.80
2017-08-04T04:19:15.058Z,2.00
2017-08-04T04:21:41.166Z,1.63
2017-08-04T04:24:07.276Z,1.70
2017-08-04T04:26:33.371Z,1.87
2017-08-04T04:28:59.458Z,1.67
2017-08-04T04:31:25.527Z,2.03
2017-08-04T04:33:51.586Z,1.90
2017-08-04T04:36:17.660Z,1.70
2017-08-04T04:38:44.483Z,2.50
2017-08-04T04:41:10.557Z,1.73
2017-08-04T04:43:36.618Z,2.20
2017-08-04T04:46:02.703Z,2.10
2017-08-04T04:48:28.770Z,2.20
2017-08-04T04:53:30.594Z,2.17
2017-08-04T04:55:56.782Z,2.30
2017-08-04T04:58:22.872Z,2.10
2017-08-04T05:00:48.942Z,1.70
2017-08-04T05:03:15.023Z,1.63
2017-08-04T05:05:41.106Z,1.90
2017-08-04T05:08:07.922Z,2.20
2017-08-04T05:10:33.974Z,1.70
2017-08-04T05:13:00.054Z,2.07
2017-08-04T05:15:26.134Z,2.63
2017-08-04T05:17:52.207Z,2.33
2017-08-04T05:20:18.282Z,2.93
2017-08-04T05:22:44.513Z,1.90
2017-08-04T05:25:10.602Z,2.57
2017-08-04T05:27:36.703Z,2.07
2017-08-04T05:30:02.823Z,2.20
2017-08-04T05:32:28.898Z,2.13
2017-08-04T05:34:55.739Z,1.93
2017-08-04T05:37:22.554Z,2.67
2017-08-04T05:39:48.636Z,1.73
2017-08-04T05:42:14.687Z,2.00
2017-08-04T05:44:40.766Z,2.00
2017-08-04T05:47:06.839Z,2.10
2017-08-04T05:49:32.922Z,1.77
2017-08-04T05:51:59.010Z,2.30
2017-08-04T05:54:25.097Z,2.73
2017-08-04T05:56:51.190Z,1.93
2017-08-04T05:59:17.270Z,2.43
2017-08-04T06:01:43.352Z,2.50
2017-08-04T06:04:09.423Z,2.00
2017-08-04T06:06:35.507Z,1.60
2017-08-04T06:09:01.571Z,1.60
2017-08-04T06:11:27.651Z,1.87
2017-08-04T06:13:53.722Z,1.90
2017-08-04T06:16:19.803Z,2.10
2017-08-04T06:18:45.870Z,2.30
2017-08-04T06:21:11.945Z,2.53
2017-08-04T06:23:38.031Z,2.00
2017-08-04T06:26:04.134Z,1.80
2017-08-04T06:28:30.214Z,2.20
2017-08-04T06:30:56.327Z,2.03
2017-08-04T06:33:22.411Z,1.50
2017-08-04T06:35:48.488Z,1.90
2017-08-04T06:38:14.583Z,1.93
2017-08-04T06:40:40.670Z,2.30
2017-08-04T06:43:06.758Z,2.00
2017-08-04T06:45:33.563Z,2.10
2017-08-04T06:47:59.659Z,1.80
2017-08-04T06:50:38.082Z,1.93
2017-08-04T06:53:26.254Z,1.57
2017-08-04T06:56:14.448Z,1.77
2017-08-04T06:58:40.519Z,1.90
2017-08-04T07:01:06.601Z,2.47
2017-08-04T07:03:32.673Z,2.10
2017-08-04T07:05:58.756Z,1.70
2017-08-04T07:08:24.843Z,1.70
2017-08-04T07:10:51.669Z,2.27
2017-08-04T07:13:17.725Z,1.97
2017-08-04T07:15:43.812Z,1.80
2017-08-04T07:18:09.886Z,2.13
2017-08-04T07:20:35.970Z,2.20
2017-08-04T07:23:02.034Z,1.60
2017-08-04T07:25:28.115Z,1.80
2017-08-04T07:27:54.175Z,2.20
2017-08-04T07:30:20.376Z,2.00
2017-08-04T07:32:46.427Z,1.73
2017-08-04T07:35:12.491Z,1.70
2017-08-04T07:37:38.562Z,1.90
2017-08-04T07:40:04.627Z,1.60
2017-08-04T07:42:30.718Z,2.47
2017-08-04T07:44:57.518Z,1.83
2017-08-04T07:47:23.599Z,2.20
2017-08-04T07:49:49.657Z,1.83
2017-08-04T07:52:15.735Z,1.93
2017-08-04T07:54:41.818Z,2.10
2017-08-04T07:57:07.906Z,2.00
2017-08-04T07:59:33.978Z,1.70
2017-08-04T08:02:00.406Z,1.90
2017-08-04T08:04:26.488Z,2.20
2017-08-04T08:06:52.559Z,2.40
2017-08-04T08:09:18.646Z,1.93
2017-08-04T08:11:44.711Z,1.50
2017-08-04T08:14:10.790Z,2.47
2017-08-04T08:16:36.852Z,1.97
2017-08-04T08:19:03.096Z,1.40
2017-08-04T08:21:29.150Z,1.80
2017-08-04T08:23:55.213Z,1.57
2017-08-04T08:26:21.279Z,1.60
2017-08-04T08:28:47.470Z,2.13
2017-08-04T08:31:13.524Z,1.60
2017-08-04T08:33:39.580Z,1.70
2017-08-04T08:36:05.654Z,1.80
2017-08-04T08:38:31.759Z,2.00
2017-08-04T08:40:57.826Z,1.50
2017-08-04T08:43:24.654Z,1.50
2017-08-04T08:45:50.705Z,1.30
2017-08-04T08:48:16.780Z,1.70
2017-08-04T08:50:42.829Z,2.10
2017-08-04T08:53:08.903Z,1.70
2017-08-04T08:55:34.959Z,1.93
2017-08-04T08:58:01.043Z,2.37
2017-08-04T09:00:27.109Z,1.80
2017-08-04T09:02:53.393Z,1.60
2017-08-04T09:05:19.447Z,1.30
2017-08-04T09:07:45.510Z,1.37
2017-08-04T09:10:11.607Z,1.80
2017-08-04T09:12:37.686Z,1.60
2017-08-04T09:15:03.764Z,1.60
2017-08-04T09:17:29.825Z,1.30
2017-08-04T09:19:56.634Z,1.47
2017-08-04T09:22:22.689Z,1.80
2017-08-04T09:24:48.765Z,2.30
2017-08-04T09:27:14.836Z,1.50
2017-08-04T09:29:41.719Z,1.73
2017-08-04T09:32:07.785Z,1.70
2017-08-04T09:34:33.856Z,1.40
2017-08-04T09:36:59.905Z,1.60
2017-08-04T09:39:26.031Z,1.93
2017-08-04T09:41:52.339Z,1.93
2017-08-04T09:44:18.421Z,1.90
2017-08-04T09:46:45.229Z,1.80
2017-08-04T09:49:11.307Z,1.70
2017-08-04T09:51:37.370Z,1.73
2017-08-04T09:54:03.458Z,2.33
2017-08-04T09:56:29.531Z,1.50
2017-08-04T09:58:56.323Z,1.53
2017-08-04T10:01:23.147Z,1.87
2017-08-04T10:03:49.235Z,1.70
2017-08-04T10:06:15.329Z,2.37
2017-08-04T10:08:41.449Z,2.10
2017-08-04T10:11:07.524Z,1.70
2017-08-04T10:13:33.578Z,1.70
2017-08-04T10:15:59.923Z,1.37
2017-08-04T10:18:26.731Z,1.67
2017-08-04T10:20:52.807Z,1.60
2017-08-04T10:23:18.883Z,1.70
2017-08-04T10:25:44.974Z,1.77
2017-08-04T10:28:11.063Z,1.40
2017-08-04T10:30:37.115Z,1.57
2017-08-04T10:33:03.204Z,1.40
2017-08-04T10:35:30.006Z,1.40
2017-08-04T10:37:56.106Z,1.80
2017-08-04T10:40:22.167Z,2.10
2017-08-04T10:42:48.258Z,1.40
2017-08-04T10:45:14.326Z,1.50
2017-08-04T10:47:40.414Z,1.60
2017-08-04T10:50:06.472Z,1.50
2017-08-04T10:52:32.601Z,1.70
2017-08-04T10:54:58.675Z,1.30
2017-08-04T10:57:24.779Z,1.33
2017-08-04T10:59:50.835Z,1.30
2017-08-04T11:02:16.899Z,1.20
2017-08-04T11:04:43.035Z,1.20
2017-08-04T11:07:09.847Z,1.90
2017-08-04T11:09:35.918Z,1.40
2017-08-04T11:12:02.727Z,1.60
2017-08-04T11:14:28.806Z,1.30
2017-08-04T11:16:54.862Z,1.30
2017-08-04T11:19:20.951Z,1.33
2017-08-04T11:21:47.025Z,1.63
2017-08-04T11:24:13.110Z,1.73
2017-08-04T11:26:39.186Z,1.57
2017-08-04T11:29:08.148Z,1.30
2017-08-04T11:31:34.203Z,1.40
2017-08-04T11:34:00.294Z,1.60
2017-08-04T11:36:26.394Z,1.10
2017-08-04T11:38:52.515Z,1.70
2017-08-04T11:41:18.572Z,1.70
2017-08-04T11:43:44.667Z,1.57
2017-08-04T11:46:10.722Z,1.40
2017-08-04T11:48:36.800Z,1.67
2017-08-04T11:51:03.659Z,1.30
2017-08-04T11:53:29.738Z,1.30
2017-08-04T11:55:55.822Z,1.40
2017-08-04T11:58:21.884Z,1.40
2017-08-04T12:00:47.974Z,1.50
2017-08-04T12:03:14.048Z,1.40
2017-08-04T12:05:40.880Z,1.57
2017-08-04T12:08:06.926Z,1.50
2017-08-04T12:10:33.745Z,1.37
2017-08-04T12:12:59.810Z,1.63
2017-08-04T12:15:25.887Z,1.70
2017-08-04T12:17:51.970Z,1.80
2017-08-04T12:20:18.053Z,1.20
2017-08-04T12:22:44.906Z,2.00
2017-08-04T12:25:11.725Z,1.47
2017-08-04T12:27:37.790Z,1.53
2017-08-04T12:30:03.922Z,1.20
2017-08-04T12:32:29.978Z,1.73
2017-08-04T12:34:56.076Z,1.27
2017-08-04T12:37:22.168Z,1.43
2017-08-04T12:39:48.242Z,1.43
2017-08-04T12:42:14.310Z,1.70
2017-08-04T12:44:40.398Z,1.50
2017-08-04T12:47:08.190Z,1.53
2017-08-04T12:49:34.570Z,1.73
2017-08-04T12:52:00.631Z,1.60
2017-08-04T12:54:26.719Z,1.50
2017-08-04T12:56:52.775Z,1.30
2017-08-04T12:59:18.818Z,1.60
2017-08-04T13:01:44.887Z,1.40
2017-08-04T13:04:10.944Z,1.67
2017-08-04T13:06:37.012Z,1.70
2017-08-04T13:09:03.862Z,1.80
2017-08-04T13:11:30.671Z,1.70
2017-08-04T13:13:56.731Z,1.30
2017-08-04T13:16:23.538Z,1.70
2017-08-04T13:18:49.594Z,1.73
2017-08-04T13:21:15.670Z,1.70
2017-08-04T13:23:41.726Z,2.30
2017-08-04T13:26:07.818Z,1.60
2017-08-04T13:28:33.866Z,1.60
2017-08-04T13:31:00.011Z,1.70
2017-08-04T13:33:26.798Z,1.60
2017-08-04T13:35:52.877Z,2.20
2017-08-04T13:38:25.917Z,1.70
2017-08-04T13:40:51.996Z,1.70
2017-08-04T13:43:18.827Z,2.10
2017-08-04T13:45:45.623Z,1.60
2017-08-04T13:48:11.690Z,1.80
2017-08-04T13:50:37.774Z,1.53
2017-08-04T13:53:04.093Z,2.07
2017-08-04T13:55:30.146Z,1.70
2017-08-04T13:57:56.210Z,1.73
2017-08-04T14:00:23.006Z,1.50
2017-08-04T14:02:49.082Z,1.90
2017-08-04T14:05:15.130Z,2.07
2017-08-04T14:07:41.200Z,2.00
2017-08-04T14:10:07.287Z,1.70
2017-08-04T14:12:33.358Z,1.77
2017-08-04T14:15:00.187Z,2.50
2017-08-04T14:17:26.234Z,1.97
2017-08-04T14:19:53.041Z,1.90
2017-08-04T14:22:19.135Z,1.90
2017-08-04T14:24:45.191Z,1.63
2017-08-04T14:27:11.239Z,1.90
2017-08-04T14:29:37.314Z,1.67
2017-08-04T14:32:03.390Z,1.90
2017-08-04T14:34:29.463Z,1.93
2017-08-04T14:36:55.517Z,1.50
2017-08-04T14:39:21.586Z,1.63
2017-08-04T14:41:47.630Z,1.40
2017-08-04T14:44:13.681Z,1.60
2017-08-04T14:46:39.730Z,1.40
2017-08-04T14:49:05.806Z,1.60
2017-08-04T14:51:31.846Z,1.37
2017-08-04T14:53:57.914Z,1.87
2017-08-04T14:56:24.702Z,1.20
2017-08-04T14:58:50.750Z,1.40
2017-08-04T15:01:16.815Z,1.60
2017-08-04T15:03:43.602Z,1.10
2017-08-04T15:06:09.670Z,1.20
2017-08-04T15:08:36.462Z,1.47
2017-08-04T15:11:02.551Z,1.13
2017-08-04T15:13:28.595Z,1.30
2017-08-04T15:15:54.674Z,1.30
2017-08-04T15:18:20.722Z,1.07
2017-08-04T15:20:46.811Z,1.10
2017-08-04T15:23:12.895Z,1.30
2017-08-04T15:25:38.955Z,1.50
2017-08-04T15:28:05.010Z,1.17
2017-08-04T15:30:31.825Z,1.20
2017-08-04T15:32:58.323Z,1.20
2017-08-04T15:35:24.404Z,1.40
2017-08-04T15:37:51.218Z,1.50
2017-08-04T15:40:17.282Z,1.40
2017-08-04T15:42:44.070Z,1.23
2017-08-04T15:45:10.155Z,1.53
2017-08-04T15:47:36.226Z,1.20
2017-08-04T15:50:02.286Z,1.50
2017-08-04T15:52:29.101Z,1.57
2017-08-04T15:54:55.150Z,1.70
2017-08-04T15:57:21.953Z,1.80
2017-08-04T15:59:47.994Z,1.63
2017-08-04T16:02:14.083Z,1.37
2017-08-04T16:04:40.145Z,1.70
2017-08-04T16:07:06.259Z,1.53
2017-08-04T16:09:32.463Z,1.70
2017-08-04T16:11:58.559Z,1.50
2017-08-04T16:14:25.378Z,1.47
2017-08-04T16:16:51.462Z,1.67
2017-08-04T16:19:17.508Z,1.83
2017-08-04T16:21:43.610Z,1.60
2017-08-04T16:24:09.668Z,1.67
2017-08-04T16:26:35.722Z,1.57
2017-08-04T16:29:01.791Z,1.80
2017-08-04T16:31:27.899Z,1.73
2017-08-04T16:33:53.983Z,1.60
2017-08-04T16:36:20.787Z,1.50
2017-08-04T16:38:46.920Z,1.60
2017-08-04T16:41:12.992Z,1.33
2017-08-04T16:43:39.070Z,1.50
2017-08-04T16:46:05.172Z,1.50
2017-08-04T16:48:31.257Z,1.40
2017-08-04T16:50:58.068Z,1.33
2017-08-04T16:53:24.133Z,1.60
2017-08-04T16:55:50.186Z,1.50
2017-08-04T16:58:16.274Z,1.67
2017-08-04T17:00:42.339Z,1.57
2017-08-04T17:03:08.443Z,1.40
2017-08-04T17:05:34.553Z,1.90
2017-08-04T17:08:01.377Z,1.77
2017-08-04T17:10:27.466Z,1.50
2017-08-04T17:12:53.523Z,1.50
2017-08-04T17:15:19.607Z,1.70
2017-08-04T17:17:45.675Z,1.90
2017-08-04T17:20:11.759Z,1.80
2017-08-04T17:22:37.818Z,1.57
2017-08-04T17:25:03.893Z,1.60
2017-08-04T17:27:29.963Z,1.97
2017-08-04T17:29:56.034Z,1.70
2017-08-04T17:32:22.088Z,2.30
2017-08-04T17:34:48.185Z,1.60
2017-08-04T17:37:14.262Z,1.60
2017-08-04T17:39:40.341Z,1.80
2017-08-04T17:42:06.404Z,1.50
2017-08-04T17:44:32.482Z,1.50
2017-08-04T17:46:58.537Z,1.60
2017-08-04T17:49:24.598Z,1.60
2017-08-04T17:51:50.710Z,1.80
2017-08-04T17:54:16.787Z,1.80
2017-08-04T17:56:42.874Z,1.60
2017-08-04T17:59:09.047Z,1.90
2017-08-04T18:01:35.119Z,1.77
2017-08-04T18:04:01.170Z,1.87
2017-08-04T18:06:27.242Z,1.50
2017-08-04T18:08:53.319Z,1.60
2017-08-04T18:11:19.418Z,2.10
2017-08-04T18:13:45.480Z,2.27
2017-08-04T18:16:11.546Z,1.73
2017-08-04T18:18:37.610Z,1.87
2017-08-04T18:21:04.444Z,1.87
2017-08-04T18:23:31.250Z,1.80
2017-08-04T18:25:57.343Z,2.27
2017-08-04T18:28:23.407Z,1.90
2017-08-04T18:30:49.502Z,1.80
2017-08-04T18:33:15.546Z,2.13
2017-08-04T18:35:41.630Z,1.80
2017-08-04T18:38:07.684Z,1.97
2017-08-04T18:40:33.762Z,1.73
2017-08-04T18:42:59.822Z,1.73
2017-08-04T18:45:25.914Z,2.27
2017-08-04T18:47:52.709Z,1.80
2017-08-04T18:50:18.782Z,1.83
2017-08-04T18:52:44.847Z,1.57
2017-08-04T18:55:10.926Z,2.20
2017-08-04T18:57:37.732Z,1.90
2017-08-04T19:00:03.778Z,1.97
2017-08-04T19:02:29.892Z,1.90
2017-08-04T19:04:55.999Z,2.10
2017-08-04T19:07:22.082Z,1.60
2017-08-04T19:09:48.149Z,1.97
2017-08-04T19:12:14.254Z,2.50
2017-08-04T19:14:40.343Z,2.50
2017-08-04T19:17:06.416Z,2.00
2017-08-04T19:19:32.497Z,1.80
2017-08-04T19:21:59.551Z,1.60
2017-08-04T19:24:26.742Z,2.00
2017-08-04T19:26:53.279Z,2.10
2017-08-04T19:29:19.367Z,2.00
2017-08-04T19:31:45.467Z,2.53
2017-08-04T19:34:11.658Z,2.30
2017-08-04T19:36:37.741Z,2.20
2017-08-04T19:39:04.020Z,2.23
2017-08-04T19:41:30.103Z,2.03
2017-08-04T19:43:56.201Z,2.37
2017-08-04T19:46:22.434Z,2.40
2017-08-04T19:48:49.329Z,2.90
2017-08-04T19:51:15.407Z,1.80
2017-08-04T19:53:42.571Z,2.70
2017-08-04T19:56:08.719Z,1.83
2017-08-04T19:58:34.771Z,2.00
2017-08-04T20:01:00.838Z,2.60
2017-08-04T20:03:26.990Z,2.50
2017-08-04T20:05:53.064Z,2.27
2017-08-04T20:08:19.167Z,2.13
2017-08-04T20:10:45.270Z,2.37
2017-08-04T20:13:11.350Z,2.40
2017-08-04T20:15:38.158Z,1.90
2017-08-04T20:18:04.251Z,2.23
2017-08-04T20:20:30.335Z,1.80
2017-08-04T20:22:56.411Z,2.10
2017-08-04T20:25:22.474Z,2.17
2017-08-04T20:27:48.573Z,2.77
2017-08-04T20:30:14.642Z,2.17
2017-08-04T20:32:41.504Z,2.70
2017-08-04T20:35:07.571Z,2.40
2017-08-04T20:37:33.702Z,2.50
2017-08-04T20:40:01.237Z,3.10
2017-08-04T20:42:27.322Z,2.90
2017-08-04T20:44:54.132Z,3.13
2017-08-04T20:47:20.239Z,3.03
2017-08-04T20:49:46.306Z,3.50
2017-08-04T20:52:13.105Z,3.57
2017-08-04T20:54:39.201Z,3.70
2017-08-04T20:57:05.283Z,3.20
2017-08-04T20:59:32.375Z,2.60
2017-08-04T21:01:58.452Z,2.63
2017-08-04T21:04:24.534Z,2.70
2017-08-04T21:06:50.595Z,3.00
2017-08-04T21:09:16.698Z,2.87
2017-08-04T21:11:42.758Z,2.50
2017-08-04T21:14:08.846Z,2.70
2017-08-04T21:16:35.269Z,3.07
2017-08-04T21:19:01.382Z,2.90
2017-08-04T21:21:27.446Z,3.20
2017-08-04T21:23:53.540Z,3.43
2017-08-04T21:26:19.608Z,3.40
2017-08-04T21:28:45.694Z,3.70
2017-08-04T21:31:11.756Z,3.00
2017-08-04T21:33:37.838Z,3.20
2017-08-04T21:36:03.895Z,3.97
2017-08-04T21:38:29.967Z,3.07
2017-08-04T21:40:56.132Z,3.90
2017-08-04T21:43:22.215Z,3.80
2017-08-04T21:45:49.018Z,3.90
2017-08-04T21:48:15.085Z,3.50
2017-08-04T21:50:41.929Z,3.47
2017-08-04T21:53:08.022Z,3.77
2017-08-04T21:55:34.091Z,3.43
2017-08-04T21:58:00.216Z,3.20
2017-08-04T22:00:26.298Z,2.97
2017-08-04T22:02:52.403Z,4.03
2017-08-04T22:05:18.536Z,3.20
2017-08-04T22:07:44.621Z,4.10
2017-08-04T22:10:10.734Z,3.00
2017-08-04T22:12:36.827Z,3.63
2017-08-04T22:15:02.899Z,3.80
2017-08-04T22:17:28.977Z,3.40
2017-08-04T22:19:55.043Z,3.10
2017-08-04T22:22:21.116Z,3.40
2017-08-04T22:24:47.202Z,4.03
2017-08-04T22:27:13.275Z,3.40
2017-08-04T22:29:39.349Z,3.83
2017-08-04T22:32:05.402Z,4.20
2017-08-04T22:34:32.297Z,3.43
2017-08-04T22:36:58.367Z,3.00
2017-08-04T22:39:24.445Z,4.03
2017-08-04T22:41:50.524Z,3.20
2017-08-04T22:44:16.643Z,2.70
2017-08-04T22:46:42.728Z,2.60
2017-08-04T22:49:08.815Z,2.87
2017-08-04T22:51:34.873Z,3.17
2017-08-04T22:54:00.983Z,2.80
2017-08-04T22:56:27.797Z,3.27
2017-08-04T22:58:53.867Z,2.60
2017-08-04T23:01:20.026Z,2.90
2017-08-04T23:03:46.123Z,2.27
2017-08-04T23:06:12.200Z,2.50
2017-08-04T23:08:38.254Z,2.53
2017-08-04T23:11:05.091Z,2.67
2017-08-04T23:13:31.899Z,2.80
2017-08-04T23:15:57.991Z,2.40
2017-08-04T23:18:24.062Z,2.27
2017-08-04T23:20:50.141Z,2.50
2017-08-04T23:23:16.236Z,3.20
2017-08-04T23:25:43.070Z,2.10
2017-08-04T23:28:09.136Z,2.40
2017-08-04T23:30:35.321Z,2.63
2017-08-04T23:33:02.126Z,2.57
2017-08-04T23:35:28.211Z,2.50
2017-08-04T23:37:54.281Z,2.10
2017-08-04T23:40:20.388Z,2.40
2017-08-04T23:42:46.446Z,2.10
2017-08-04T23:45:12.518Z,2.57
2017-08-04T23:47:38.734Z,2.57
2017-08-04T23:50:04.811Z,2.90
2017-08-04T23:52:30.880Z,2.90
2017-08-04T23:54:56.943Z,2.33
2017-08-04T23:57:23.038Z,2.63
2017-08-04T23:59:49.094Z,2.23
